Time;durP1;ratioP1;P1;durP2;ratioP2;P2;SDS_P1;SDS_P2;PMS_P1;PMS_P2;Temp;Humidity;BMP_temperature;BMP_pressure;BME280_temperature;BME280_humidity;BME280_pressure;Samples;Min_cycle;Max_cycle;Signal;HPM_P1;HPM_P2
2023/08/01 00:02:10;;;;;;;0.15;0.15;;;;;;;;;;5153341;27;20424;-49
2023/08/01 00:04:36;;;;;;;0.20;0.20;;;;;;;;;;5131667;27;20035;-48
2023/08/01 00:07:01;;;;;;;0.20;0.20;;;;;;;;;;5129341;27;20054;-49
2023/08/01 00:09:27;;;;;;;0.20;0.20;;;;;;;;;;5136454;27;20051;-49
2023/08/01 00:11:52;;;;;;;0.20;0.20;;;;;;;;;;5152011;27;20518;-49
2023/08/01 00:14:20;;;;;;;0.20;0.20;;;;;;;;;;5155096;27;20070;-49
2023/08/01 00:16:45;;;;;;;0.10;0.10;;;;;;;;;;5135883;27;20051;-49
2023/08/01 00:19:12;;;;;;;0.15;0.15;;;;;;;;;;5134009;28;20422;-48
2023/08/01 00:21:37;;;;;;;0.20;0.20;;;;;;;;;;5150063;27;20059;-49
2023/08/01 00:24:03;;;;;;;0.20;0.20;;;;;;;;;;5154565;27;20456;-48
2023/08/01 00:26:29;;;;;;;0.10;0.10;;;;;;;;;;5151754;27;20055;-49
2023/08/01 00:28:54;;;;;;;0.10;0.10;;;;;;;;;;5154462;27;20077;-48
2023/08/01 00:31:20;;;;;;;0.20;0.20;;;;;;;;;;5135019;27;20050;-49
2023/08/01 00:33:45;;;;;;;0.30;0.30;;;;;;;;;;5137774;27;20047;-49
2023/08/01 00:36:11;;;;;;;0.20;0.20;;;;;;;;;;5134379;28;20062;-49
2023/08/01 00:38:37;;;;;;;0.20;0.20;;;;;;;;;;5115831;27;20088;-49
2023/08/01 00:41:02;;;;;;;0.20;0.20;;;;;;;;;;5151273;27;20076;-49
2023/08/01 00:43:28;;;;;;;0.13;0.13;;;;;;;;;;5153118;27;20046;-48
2023/08/01 00:45:58;;;;;;;0.10;0.10;;;;;;;;;;5155059;27;20055;-48
2023/08/01 00:48:24;;;;;;;0.20;0.20;;;;;;;;;;5154977;27;20046;-48
2023/08/01 00:50:50;;;;;;;0.10;0.10;;;;;;;;;;5154611;27;20050;-49
2023/08/01 00:53:16;;;;;;;0.20;0.20;;;;;;;;;;5155240;27;20043;-48
2023/08/01 00:55:42;;;;;;;0.20;0.20;;;;;;;;;;5155046;27;20391;-48
2023/08/01 00:58:07;;;;;;;0.20;0.20;;;;;;;;;;5155006;27;20543;-48
2023/08/01 01:00:33;;;;;;;0.20;0.20;;;;;;;;;;5151164;27;20051;-48
2023/08/01 01:02:59;;;;;;;0.20;0.20;;;;;;;;;;5150895;27;20541;-49
2023/08/01 01:05:27;;;;;;;0.20;0.20;;;;;;;;;;5141810;27;20471;-48
2023/08/01 01:07:52;;;;;;;0.20;0.20;;;;;;;;;;5135397;27;20051;-48
2023/08/01 01:10:18;;;;;;;0.10;0.10;;;;;;;;;;5137487;27;20055;-50
2023/08/01 01:12:44;;;;;;;0.20;0.20;;;;;;;;;;5148381;27;20064;-48
2023/08/01 01:15:09;;;;;;;0.17;0.17;;;;;;;;;;5154119;27;20055;-44
2023/08/01 01:17:35;;;;;;;0.20;0.20;;;;;;;;;;5153734;27;20050;-49
2023/08/01 01:20:00;;;;;;;0.20;0.20;;;;;;;;;;5149986;27;20043;-50
2023/08/01 01:22:26;;;;;;;0.20;0.20;;;;;;;;;;5154091;27;20042;-49
2023/08/01 01:24:53;;;;;;;0.20;0.20;;;;;;;;;;5153698;27;20059;-48
2023/08/01 01:27:19;;;;;;;0.20;0.20;;;;;;;;;;5153679;27;20043;-47
2023/08/01 01:29:44;;;;;;;0.20;0.20;;;;;;;;;;5150869;27;20661;-45
2023/08/01 01:32:10;;;;;;;0.20;0.20;;;;;;;;;;5144503;27;20130;-49
2023/08/01 01:34:36;;;;;;;0.20;0.20;;;;;;;;;;5137208;27;20039;-49
2023/08/01 01:37:03;;;;;;;0.10;0.10;;;;;;;;;;5153312;27;20103;-49
2023/08/01 01:39:28;;;;;;;0.20;0.20;;;;;;;;;;5153668;27;20073;-49
2023/08/01 01:41:54;;;;;;;0.20;0.20;;;;;;;;;;5137827;27;20407;-48
2023/08/01 01:44:19;;;;;;;0.20;0.20;;;;;;;;;;5135727;27;20062;-48
2023/08/01 01:46:46;;;;;;;0.20;0.20;;;;;;;;;;5132490;28;20054;-49
2023/08/01 01:49:11;;;;;;;0.20;0.20;;;;;;;;;;5132854;28;20055;-48
2023/08/01 01:51:37;;;;;;;0.20;0.20;;;;;;;;;;5148872;27;20050;-49
2023/08/01 01:54:03;;;;;;;0.20;0.20;;;;;;;;;;5153615;27;20069;-47
2023/08/01 01:56:29;;;;;;;0.20;0.20;;;;;;;;;;5153724;27;20053;-48
2023/08/01 01:58:55;;;;;;;0.20;0.20;;;;;;;;;;5153049;27;20474;-48
2023/08/01 02:01:20;;;;;;;0.20;0.20;;;;;;;;;;5152711;27;20042;-49
2023/08/01 02:03:46;;;;;;;0.20;0.20;;;;;;;;;;5150496;27;20096;-49
2023/08/01 02:06:11;;;;;;;0.28;0.28;;;;;;;;;;5137295;27;20047;-49
2023/08/01 02:08:37;;;;;;;0.20;0.20;;;;;;;;;;5137924;27;20081;-49
2023/08/01 02:11:02;;;;;;;0.20;0.20;;;;;;;;;;5142945;27;20053;-48
2023/08/01 02:13:28;;;;;;;0.10;0.10;;;;;;;;;;5146375;27;20395;-49
2023/08/01 02:15:54;;;;;;;0.20;0.20;;;;;;;;;;5153115;27;20498;-49
2023/08/01 02:18:19;;;;;;;0.20;0.20;;;;;;;;;;5152992;27;20054;-48
2023/08/01 02:20:45;;;;;;;0.20;0.20;;;;;;;;;;5140594;27;20040;-49
2023/08/01 02:23:11;;;;;;;0.20;0.20;;;;;;;;;;5132338;28;20055;-49
2023/08/01 02:25:40;;;;;;;0.20;0.20;;;;;;;;;;5132625;28;20415;-49
2023/08/01 02:28:05;;;;;;;0.10;0.10;;;;;;;;;;5132722;28;20047;-48
2023/08/01 02:30:31;;;;;;;0.20;0.20;;;;;;;;;;5138581;27;20054;-49
2023/08/01 02:32:57;;;;;;;0.20;0.20;;;;;;;;;;5152574;27;20451;-36
2023/08/01 02:35:22;;;;;;;0.20;0.20;;;;;;;;;;5143348;27;20075;-36
2023/08/01 02:37:48;;;;;;;0.20;0.20;;;;;;;;;;5132351;27;20081;-36
2023/08/01 02:40:13;;;;;;;0.10;0.10;;;;;;;;;;5135971;27;20063;-36
2023/08/01 02:42:39;;;;;;;0.10;0.10;;;;;;;;;;5146639;27;20503;-36
2023/08/01 02:45:05;;;;;;;0.15;0.15;;;;;;;;;;5132778;27;20455;-36
2023/08/01 02:47:30;;;;;;;0.10;0.10;;;;;;;;;;5132338;27;20046;-36
2023/08/01 02:49:56;;;;;;;0.10;0.10;;;;;;;;;;5134245;27;20047;-43
2023/08/01 02:52:21;;;;;;;0.10;0.10;;;;;;;;;;5153204;27;20046;-45
2023/08/01 02:54:47;;;;;;;0.17;0.17;;;;;;;;;;5153300;27;20125;-45
2023/08/01 02:57:12;;;;;;;0.13;0.13;;;;;;;;;;5152460;27;20046;-43
2023/08/01 02:59:38;;;;;;;0.20;0.20;;;;;;;;;;5152514;27;20514;-43
2023/08/01 03:02:04;;;;;;;0.10;0.10;;;;;;;;;;5150147;27;20413;-43
2023/08/01 03:04:29;;;;;;;0.20;0.20;;;;;;;;;;5136496;27;20415;-41
2023/08/01 03:07:11;;;;;;;0.20;0.20;;;;;;;;;;5132253;27;20062;-44
2023/08/01 03:09:37;;;;;;;0.10;0.10;;;;;;;;;;5134118;27;20047;-43
2023/08/01 03:12:02;;;;;;;0.20;0.20;;;;;;;;;;5131627;27;20047;-43
2023/08/01 03:14:28;;;;;;;0.20;0.20;;;;;;;;;;5134198;27;20047;-44
2023/08/01 03:16:53;;;;;;;0.20;0.20;;;;;;;;;;5134780;27;20476;-43
2023/08/01 03:19:19;;;;;;;0.10;0.10;;;;;;;;;;5132002;28;20047;-43
2023/08/01 03:21:44;;;;;;;0.10;0.10;;;;;;;;;;5145193;27;20058;-44
2023/08/01 03:24:10;;;;;;;0.20;0.20;;;;;;;;;;5131738;27;20043;-43
2023/08/01 03:26:36;;;;;;;0.20;0.20;;;;;;;;;;5131099;27;20067;-41
2023/08/01 03:29:01;;;;;;;0.10;0.10;;;;;;;;;;5131322;28;20501;-42
2023/08/01 03:31:27;;;;;;;0.10;0.10;;;;;;;;;;5146189;27;20043;-42
2023/08/01 03:33:53;;;;;;;0.20;0.20;;;;;;;;;;5136287;27;20093;-44
2023/08/01 03:36:18;;;;;;;0.10;0.10;;;;;;;;;;5137633;27;20047;-42
2023/08/01 03:38:44;;;;;;;0.13;0.13;;;;;;;;;;5138538;27;20061;-42
2023/08/01 03:41:09;;;;;;;0.20;0.20;;;;;;;;;;5142962;27;20560;-40
2023/08/01 03:43:35;;;;;;;0.20;0.20;;;;;;;;;;5151918;27;20095;-44
2023/08/01 03:46:00;;;;;;;0.10;0.10;;;;;;;;;;5149174;27;20082;-44
2023/08/01 03:48:26;;;;;;;0.10;0.10;;;;;;;;;;5150038;27;20142;-44
2023/08/01 03:50:52;;;;;;;0.10;0.10;;;;;;;;;;5152112;27;20133;-42
2023/08/01 03:53:17;;;;;;;0.20;0.20;;;;;;;;;;5152530;27;20411;-44
2023/08/01 03:55:43;;;;;;;0.20;0.20;;;;;;;;;;5152486;27;20474;-45
2023/08/01 03:58:09;;;;;;;0.15;0.15;;;;;;;;;;5151345;27;20054;-43
2023/08/01 04:00:34;;;;;;;0.20;0.20;;;;;;;;;;5149654;27;20038;-44
2023/08/01 04:03:01;;;;;;;0.10;0.10;;;;;;;;;;5141456;27;20100;-42
2023/08/01 04:05:27;;;;;;;0.20;0.20;;;;;;;;;;5131661;27;20093;-42
2023/08/01 04:07:54;;;;;;;0.20;0.20;;;;;;;;;;5145854;27;20047;-43
2023/08/01 04:10:21;;;;;;;0.13;0.13;;;;;;;;;;5144725;27;20491;-42
2023/08/01 04:12:47;;;;;;;0.10;0.10;;;;;;;;;;5143262;27;20377;-42
2023/08/01 04:15:13;;;;;;;0.15;0.15;;;;;;;;;;5151403;27;20099;-44
2023/08/01 04:17:38;;;;;;;0.10;0.10;;;;;;;;;;5134772;27;20055;-42
2023/08/01 04:20:04;;;;;;;0.17;0.17;;;;;;;;;;5132749;27;20533;-42
2023/08/01 04:22:30;;;;;;;0.20;0.20;;;;;;;;;;5151000;27;20138;-41
2023/08/01 04:24:55;;;;;;;0.15;0.15;;;;;;;;;;5149168;27;20042;-44
2023/08/01 04:27:21;;;;;;;0.20;0.20;;;;;;;;;;5150917;27;20052;-42
2023/08/01 04:29:47;;;;;;;0.15;0.15;;;;;;;;;;5150710;27;20042;-44
2023/08/01 04:32:14;;;;;;;0.10;0.10;;;;;;;;;;5150768;27;20475;-43
2023/08/01 04:34:41;;;;;;;0.10;0.10;;;;;;;;;;5145335;27;20047;-45
2023/08/01 04:37:06;;;;;;;0.10;0.10;;;;;;;;;;5145378;27;20276;-42
2023/08/01 04:39:32;;;;;;;0.10;0.10;;;;;;;;;;5140051;27;20422;-42
2023/08/01 04:41:57;;;;;;;0.10;0.10;;;;;;;;;;5135233;27;20387;-41
2023/08/01 04:44:23;;;;;;;0.10;0.10;;;;;;;;;;5133574;28;20047;-42
2023/08/01 04:46:48;;;;;;;0.10;0.10;;;;;;;;;;5139344;27;20051;-42
2023/08/01 04:49:14;;;;;;;0.10;0.10;;;;;;;;;;5136684;27;20046;-43
2023/08/01 04:51:40;;;;;;;0.10;0.10;;;;;;;;;;5153044;27;20104;-45
2023/08/01 04:54:05;;;;;;;0.20;0.20;;;;;;;;;;5153264;27;20418;-45
2023/08/01 04:56:31;;;;;;;0.10;0.10;;;;;;;;;;5154320;27;20407;-45
2023/08/01 04:58:56;;;;;;;0.30;0.30;;;;;;;;;;5153783;27;20038;-44
2023/08/01 05:01:22;;;;;;;0.10;0.10;;;;;;;;;;5152788;27;20047;-42
2023/08/01 05:03:48;;;;;;;0.10;0.10;;;;;;;;;;5137600;27;20592;-44
2023/08/01 05:06:13;;;;;;;0.10;0.10;;;;;;;;;;5132907;28;20459;-44
2023/08/01 05:08:39;;;;;;;0.10;0.10;;;;;;;;;;5144415;27;20061;-42
2023/08/01 05:11:04;;;;;;;0.10;0.10;;;;;;;;;;5145085;27;20471;-42
2023/08/01 05:13:30;;;;;;;0.20;0.20;;;;;;;;;;5133656;27;20495;-43
2023/08/01 05:15:55;;;;;;;0.10;0.10;;;;;;;;;;5132944;27;20532;-45
2023/08/01 05:18:21;;;;;;;0.20;0.20;;;;;;;;;;5133485;27;20336;-43
2023/08/01 05:20:46;;;;;;;0.20;0.20;;;;;;;;;;5141563;27;20087;-44
2023/08/01 05:23:12;;;;;;;0.20;0.20;;;;;;;;;;5153891;27;20046;-45
2023/08/01 05:25:37;;;;;;;0.17;0.17;;;;;;;;;;5152688;27;20433;-41
2023/08/01 05:28:03;;;;;;;0.20;0.20;;;;;;;;;;5154258;27;20043;-44
2023/08/01 05:30:28;;;;;;;0.10;0.10;;;;;;;;;;5153784;27;20050;-42
2023/08/01 05:32:54;;;;;;;0.20;0.20;;;;;;;;;;5154217;27;20050;-42
2023/08/01 05:35:20;;;;;;;0.20;0.20;;;;;;;;;;5153671;27;20050;-41
2023/08/01 05:37:46;;;;;;;0.20;0.20;;;;;;;;;;5149381;27;20043;-42
2023/08/01 05:40:12;;;;;;;0.65;0.40;;;;;;;;;;5141201;27;20055;-40
2023/08/01 05:42:37;;;;;;;0.10;0.10;;;;;;;;;;5149552;27;20035;-45
2023/08/01 05:45:04;;;;;;;0.17;0.17;;;;;;;;;;5141758;27;20043;-40
2023/08/01 05:47:29;;;;;;;0.20;0.20;;;;;;;;;;5139784;27;20039;-42
2023/08/01 05:49:55;;;;;;;0.20;0.20;;;;;;;;;;5133282;27;20434;-47
2023/08/01 05:52:20;;;;;;;0.20;0.20;;;;;;;;;;5143018;27;20076;-43
2023/08/01 05:54:46;;;;;;;0.45;0.40;;;;;;;;;;5148586;27;20039;-45
2023/08/01 05:57:11;;;;;;;0.20;0.20;;;;;;;;;;5142673;27;20050;-43
2023/08/01 05:59:37;;;;;;;0.10;0.10;;;;;;;;;;5142249;27;20054;-44
2023/08/01 06:02:02;;;;;;;0.10;0.10;;;;;;;;;;5140302;27;20146;-43
2023/08/01 06:04:28;;;;;;;0.20;0.20;;;;;;;;;;5143415;27;20428;-42
2023/08/01 06:06:54;;;;;;;0.20;0.20;;;;;;;;;;5132350;28;20162;-42
2023/08/01 06:09:19;;;;;;;0.20;0.20;;;;;;;;;;5147199;27;20092;-41
2023/08/01 06:11:47;;;;;;;0.10;0.10;;;;;;;;;;5133872;27;20472;-45
2023/08/01 06:14:13;;;;;;;0.20;0.20;;;;;;;;;;5141760;27;20478;-43
2023/08/01 06:16:38;;;;;;;0.20;0.20;;;;;;;;;;5140112;27;20471;-42
2023/08/01 06:19:04;;;;;;;0.20;0.20;;;;;;;;;;5132156;28;20076;-41
2023/08/01 06:21:30;;;;;;;0.20;0.20;;;;;;;;;;5139054;27;20423;-42
2023/08/01 06:23:55;;;;;;;0.10;0.10;;;;;;;;;;5142086;27;20047;-50
2023/08/01 06:26:21;;;;;;;0.20;0.20;;;;;;;;;;5140925;27;20043;-50
2023/08/01 06:28:46;;;;;;;0.28;0.28;;;;;;;;;;5144954;27;20043;-51
2023/08/01 06:31:12;;;;;;;0.20;0.20;;;;;;;;;;5132669;27;20051;-51
2023/08/01 06:33:38;;;;;;;0.20;0.20;;;;;;;;;;5137858;27;20125;-51
2023/08/01 06:36:04;;;;;;;0.30;0.30;;;;;;;;;;5141609;27;20093;-51
2023/08/01 06:38:29;;;;;;;0.20;0.20;;;;;;;;;;5133931;27;20046;-52
2023/08/01 06:40:55;;;;;;;0.20;0.20;;;;;;;;;;5142623;27;20051;-51
2023/08/01 06:43:20;;;;;;;0.20;0.20;;;;;;;;;;5142737;27;20043;-51
2023/08/01 06:45:48;;;;;;;;;;;;;;;;;;5132081;27;20399;-53
2023/08/01 06:48:14;;;;;;;0.10;0.10;;;;;;;;;;5130672;27;19967;-52
2023/08/01 06:50:40;;;;;;;0.10;0.10;;;;;;;;;;5131985;27;20070;-46
2023/08/01 06:53:05;;;;;;;0.10;0.10;;;;;;;;;;5145891;27;20124;-50
2023/08/01 06:55:31;;;;;;;0.20;0.20;;;;;;;;;;5133197;27;20043;-47
2023/08/01 06:57:56;;;;;;;0.20;0.20;;;;;;;;;;5133806;27;20058;-47
2023/08/01 07:00:22;;;;;;;0.13;0.13;;;;;;;;;;5135207;27;20043;-52
2023/08/01 07:02:47;;;;;;;0.20;0.20;;;;;;;;;;5149644;27;20043;-51
2023/08/01 07:05:13;;;;;;;0.20;0.20;;;;;;;;;;5145220;27;20166;-52
2023/08/01 07:07:39;;;;;;;0.20;0.20;;;;;;;;;;5144538;27;20054;-53
2023/08/01 07:10:04;;;;;;;0.10;0.10;;;;;;;;;;5147115;27;20054;-50
2023/08/01 07:12:30;;;;;;;0.20;0.20;;;;;;;;;;5141421;27;20483;-52
2023/08/01 07:14:55;;;;;;;0.10;0.10;;;;;;;;;;5137464;27;20046;-52
2023/08/01 07:17:21;;;;;;;0.20;0.20;;;;;;;;;;5139303;27;20126;-52
2023/08/01 07:19:46;;;;;;;0.10;0.10;;;;;;;;;;5131917;27;20441;-51
2023/08/01 07:22:12;;;;;;;0.20;0.20;;;;;;;;;;5133832;27;20055;-53
2023/08/01 07:24:37;;;;;;;0.20;0.20;;;;;;;;;;5130851;27;20047;-51
2023/08/01 07:27:03;;;;;;;0.10;0.10;;;;;;;;;;5146431;27;20082;-52
2023/08/01 07:29:29;;;;;;;0.10;0.10;;;;;;;;;;5146440;27;20070;-53
2023/08/01 07:31:54;;;;;;;0.10;0.10;;;;;;;;;;5142341;27;20054;-52
2023/08/01 07:34:20;;;;;;;0.10;0.10;;;;;;;;;;5137688;27;20050;-50
2023/08/01 07:36:48;;;;;;;0.20;0.20;;;;;;;;;;5133422;27;20047;-52
2023/08/01 07:39:13;;;;;;;;;;;;;;;;;;5137154;27;20058;-52
2023/08/01 07:41:39;;;;;;;0.20;0.20;;;;;;;;;;5140792;27;19919;-51
2023/08/01 07:44:05;;;;;;;0.20;0.20;;;;;;;;;;5140322;27;20042;-52
2023/08/01 07:46:31;;;;;;;0.25;0.25;;;;;;;;;;5147412;27;20382;-53
2023/08/01 07:48:56;;;;;;;0.10;0.10;;;;;;;;;;5130306;27;20047;-51
2023/08/01 07:51:22;;;;;;;0.10;0.10;;;;;;;;;;5137587;27;20054;-51
2023/08/01 07:53:48;;;;;;;0.28;0.28;;;;;;;;;;5116700;27;20088;-52
2023/08/01 07:56:13;;;;;;;0.17;0.17;;;;;;;;;;5130677;27;20046;-50
2023/08/01 07:58:39;;;;;;;0.20;0.20;;;;;;;;;;5133100;27;20099;-52
2023/08/01 08:01:05;;;;;;;0.20;0.20;;;;;;;;;;5145011;27;20046;-53
2023/08/01 08:03:31;;;;;;;0.20;0.20;;;;;;;;;;5148871;27;20486;-51
2023/08/01 08:05:56;;;;;;;0.20;0.20;;;;;;;;;;5142250;27;21420;-51
2023/08/01 08:08:22;;;;;;;0.10;0.10;;;;;;;;;;5139069;27;20126;-51
2023/08/01 08:10:47;;;;;;;0.10;0.10;;;;;;;;;;5137231;27;20043;-53
2023/08/01 08:13:13;;;;;;;0.20;0.20;;;;;;;;;;5138495;27;20137;-52
2023/08/01 08:15:38;;;;;;;0.10;0.10;;;;;;;;;;5149315;27;20042;-52
2023/08/01 08:18:04;;;;;;;0.20;0.20;;;;;;;;;;5137032;27;20592;-52
2023/08/01 08:20:31;;;;;;;0.20;0.20;;;;;;;;;;5146928;27;20050;-52
2023/08/01 08:22:56;;;;;;;0.10;0.10;;;;;;;;;;5151834;27;20467;-53
2023/08/01 08:25:22;;;;;;;0.15;0.15;;;;;;;;;;5144881;27;20038;-53
2023/08/01 08:27:49;;;;;;;0.15;0.15;;;;;;;;;;5142898;27;20054;-53
2023/08/01 08:30:14;;;;;;;0.20;0.20;;;;;;;;;;5144642;27;20619;-50
2023/08/01 08:32:40;;;;;;;0.20;0.20;;;;;;;;;;5149478;27;20546;-50
2023/08/01 08:35:06;;;;;;;0.20;0.20;;;;;;;;;;5137483;27;20043;-50
2023/08/01 08:37:31;;;;;;;0.20;0.20;;;;;;;;;;5149148;27;20062;-51
2023/08/01 08:39:57;;;;;;;0.20;0.20;;;;;;;;;;5138955;27;20046;-47
2023/08/01 08:42:24;;;;;;;0.20;0.20;;;;;;;;;;5144438;27;20070;-52
2023/08/01 08:44:52;;;;;;;0.20;0.20;;;;;;;;;;5148806;27;20428;-51
2023/08/01 08:47:18;;;;;;;0.20;0.20;;;;;;;;;;5137555;27;21303;-48
2023/08/01 08:49:45;;;;;;;0.10;0.10;;;;;;;;;;5140333;27;20047;-51
2023/08/01 08:52:11;;;;;;;0.17;0.17;;;;;;;;;;5147907;27;20395;-50
2023/08/01 08:54:37;;;;;;;0.20;0.20;;;;;;;;;;5139129;27;20082;-52
2023/08/01 08:57:04;;;;;;;0.10;0.10;;;;;;;;;;5142334;27;20055;-51
2023/08/01 08:59:30;;;;;;;0.10;0.10;;;;;;;;;;5145780;27;20039;-52
2023/08/01 09:01:56;;;;;;;0.10;0.10;;;;;;;;;;5135121;27;20051;-50
2023/08/01 09:04:21;;;;;;;0.10;0.10;;;;;;;;;;5146340;27;20141;-52
2023/08/01 09:06:49;;;;;;;0.10;0.10;;;;;;;;;;5138469;27;20054;-52
2023/08/01 09:09:18;;;;;;;0.20;0.20;;;;;;;;;;5146108;27;20047;-53
2023/08/01 09:11:46;;;;;;;0.20;0.20;;;;;;;;;;5143303;27;20063;-53
2023/08/01 09:14:11;;;;;;;0.13;0.13;;;;;;;;;;5142828;27;20039;-52
2023/08/01 09:16:37;;;;;;;0.20;0.20;;;;;;;;;;5119909;27;20196;-53
2023/08/01 09:19:05;;;;;;;0.20;0.20;;;;;;;;;;5149622;27;20047;-52
2023/08/01 09:21:33;;;;;;;0.10;0.10;;;;;;;;;;5140503;27;20087;-52
2023/08/01 09:24:07;;;;;;;0.63;0.30;;;;;;;;;;5142628;27;20039;-51
2023/08/01 09:26:32;;;;;;;0.10;0.10;;;;;;;;;;5137143;27;20054;-52
2023/08/01 09:28:58;;;;;;;0.10;0.10;;;;;;;;;;5115546;27;20039;-52
2023/08/01 09:31:28;;;;;;;0.10;0.10;;;;;;;;;;5145676;27;20051;-52
2023/08/01 09:33:57;;;;;;;0.20;0.20;;;;;;;;;;5140507;27;20055;-52
2023/08/01 09:36:23;;;;;;;0.20;0.20;;;;;;;;;;5149134;27;20057;-52
2023/08/01 09:38:49;;;;;;;0.20;0.20;;;;;;;;;;5135697;27;20395;-53
2023/08/01 09:41:18;;;;;;;0.20;0.20;;;;;;;;;;5134748;27;20570;-52
2023/08/01 09:43:45;;;;;;;0.10;0.10;;;;;;;;;;5140738;27;20471;-52
2023/08/01 09:46:11;;;;;;;0.22;0.20;;;;;;;;;;5133391;27;20499;-53
2023/08/01 09:48:37;;;;;;;0.20;0.20;;;;;;;;;;5143468;27;20049;-52
2023/08/01 09:51:05;;;;;;;0.20;0.20;;;;;;;;;;5146903;27;20043;-53
2023/08/01 09:53:31;;;;;;;0.20;0.20;;;;;;;;;;5143567;27;20395;-52
2023/08/01 09:55:57;;;;;;;0.20;0.20;;;;;;;;;;5140731;27;20043;-52
2023/08/01 09:58:24;;;;;;;0.10;0.10;;;;;;;;;;5145669;27;20054;-52
2023/08/01 10:00:50;;;;;;;0.20;0.20;;;;;;;;;;5137614;27;20432;-52
2023/08/01 10:03:16;;;;;;;0.20;0.20;;;;;;;;;;5147347;27;20047;-51
2023/08/01 10:05:43;;;;;;;0.20;0.20;;;;;;;;;;5139471;27;20127;-52
2023/08/01 10:08:08;;;;;;;0.20;0.20;;;;;;;;;;5147395;27;20050;-54
2023/08/01 10:10:34;;;;;;;0.10;0.10;;;;;;;;;;5143462;27;20047;-53
2023/08/01 10:13:00;;;;;;;0.10;0.10;;;;;;;;;;5146761;27;20053;-51
2023/08/01 10:15:26;;;;;;;0.10;0.10;;;;;;;;;;5147989;27;20042;-53
2023/08/01 10:17:52;;;;;;;0.10;0.10;;;;;;;;;;5130231;27;20570;-52
2023/08/01 10:20:18;;;;;;;0.10;0.10;;;;;;;;;;5141344;27;20050;-50
2023/08/01 10:22:44;;;;;;;0.10;0.10;;;;;;;;;;5140071;27;20050;-51
2023/08/01 10:25:10;;;;;;;0.43;0.43;;;;;;;;;;5133416;27;20490;-53
2023/08/01 10:27:36;;;;;;;0.20;0.20;;;;;;;;;;5141371;27;20054;-52
2023/08/01 10:30:02;;;;;;;0.20;0.20;;;;;;;;;;5135645;27;20082;-52
2023/08/01 10:32:31;;;;;;;0.10;0.10;;;;;;;;;;5142485;27;20039;-52
2023/08/01 10:34:56;;;;;;;0.10;0.10;;;;;;;;;;5143643;27;20053;-51
2023/08/01 10:37:22;;;;;;;0.10;0.10;;;;;;;;;;5135132;27;20078;-52
2023/08/01 10:39:56;;;;;;;0.20;0.20;;;;;;;;;;5149576;27;20043;-52
2023/08/01 10:42:21;;;;;;;0.20;0.20;;;;;;;;;;5144993;27;20046;-52
2023/08/01 10:44:47;;;;;;;0.15;0.15;;;;;;;;;;5142112;27;20088;-54
2023/08/01 10:47:12;;;;;;;0.10;0.10;;;;;;;;;;5140858;27;20103;-48
2023/08/01 10:49:39;;;;;;;0.10;0.10;;;;;;;;;;5135804;27;20122;-46
2023/08/01 10:52:17;;;;;;;0.20;0.20;;;;;;;;;;5134684;27;20047;-50
2023/08/01 10:54:42;;;;;;;0.20;0.20;;;;;;;;;;5133953;27;20506;-49
2023/08/01 10:57:08;;;;;;;0.10;0.10;;;;;;;;;;5132800;27;20144;-50
2023/08/01 10:59:34;;;;;;;0.10;0.10;;;;;;;;;;5144523;27;20043;-48
2023/08/01 11:02:01;;;;;;;0.10;0.10;;;;;;;;;;5141250;27;20107;-51
2023/08/01 11:04:27;;;;;;;0.28;0.28;;;;;;;;;;5150196;27;20486;-50
2023/08/01 11:06:56;;;;;;;0.10;0.10;;;;;;;;;;5152248;27;20081;-49
2023/08/01 11:09:22;;;;;;;0.10;0.10;;;;;;;;;;5150987;27;20035;-49
2023/08/01 11:11:51;;;;;;;0.20;0.20;;;;;;;;;;5149027;27;20054;-50
2023/08/01 11:14:19;;;;;;;0.10;0.10;;;;;;;;;;5152458;27;20115;-50
2023/08/01 11:16:44;;;;;;;0.10;0.10;;;;;;;;;;5140242;27;20078;-48
2023/08/01 11:19:26;;;;;;;0.43;0.43;;;;;;;;;;5141449;27;20105;-49
2023/08/01 11:21:52;;;;;;;0.10;0.10;;;;;;;;;;5135908;27;20063;-44
2023/08/01 11:24:19;;;;;;;0.10;0.10;;;;;;;;;;5135198;27;20104;-46
2023/08/01 11:26:45;;;;;;;0.20;0.20;;;;;;;;;;5143288;27;20602;-46
2023/08/01 11:29:11;;;;;;;0.10;0.10;;;;;;;;;;5139498;27;20068;-46
2023/08/01 11:31:37;;;;;;;0.10;0.10;;;;;;;;;;5144715;27;20051;-46
2023/08/01 11:34:03;;;;;;;0.20;0.20;;;;;;;;;;5136526;27;20043;-45
2023/08/01 11:36:29;;;;;;;0.20;0.20;;;;;;;;;;5137166;27;20039;-50
2023/08/01 11:38:58;;;;;;;0.20;0.20;;;;;;;;;;5145806;27;20174;-50
2023/08/01 11:41:24;;;;;;;0.10;0.10;;;;;;;;;;5144943;27;20051;-45
2023/08/01 11:43:51;;;;;;;0.10;0.10;;;;;;;;;;5151932;27;20080;-47
2023/08/01 11:46:16;;;;;;;0.20;0.20;;;;;;;;;;5147304;27;20058;-51
2023/08/01 11:48:46;;;;;;;0.20;0.20;;;;;;;;;;5147857;27;20444;-47
2023/08/01 11:51:12;;;;;;;0.20;0.20;;;;;;;;;;5140651;27;20051;-48
2023/08/01 11:53:38;;;;;;;0.10;0.10;;;;;;;;;;5147287;27;20069;-48
2023/08/01 11:56:04;;;;;;;0.10;0.10;;;;;;;;;;5139173;27;20447;-51
2023/08/01 11:58:31;;;;;;;0.10;0.10;;;;;;;;;;5134682;27;20518;-50
2023/08/01 12:01:12;;;;;;;0.20;0.20;;;;;;;;;;5144572;27;20074;-51
2023/08/01 12:03:45;;;;;;;0.20;0.20;;;;;;;;;;5148257;27;20070;-47
2023/08/01 12:06:13;;;;;;;0.20;0.20;;;;;;;;;;5126661;27;20054;-50
2023/08/01 12:08:39;;;;;;;0.10;0.10;;;;;;;;;;5134511;28;20043;-47
2023/08/01 12:11:04;;;;;;;0.20;0.20;;;;;;;;;;5136755;27;20646;-48
2023/08/01 12:13:31;;;;;;;0.20;0.20;;;;;;;;;;5152556;27;20065;-47
2023/08/01 12:15:56;;;;;;;0.10;0.10;;;;;;;;;;5154642;27;20505;-50
2023/08/01 12:18:24;;;;;;;0.10;0.10;;;;;;;;;;5153024;27;20050;-48
2023/08/01 12:21:09;;;;;;;0.10;0.10;;;;;;;;;;5129913;27;20047;-48
2023/08/01 12:23:35;;;;;;;0.10;0.10;;;;;;;;;;5149603;27;20047;-50
2023/08/01 12:26:01;;;;;;;0.10;0.10;;;;;;;;;;5151782;27;20046;-48
2023/08/01 12:28:26;;;;;;;0.10;0.10;;;;;;;;;;5138499;27;20054;-49
2023/08/01 12:30:52;;;;;;;0.10;0.10;;;;;;;;;;5146270;27;20085;-49
2023/08/01 12:33:17;;;;;;;0.10;0.10;;;;;;;;;;5153727;27;20129;-49
2023/08/01 12:35:43;;;;;;;0.10;0.10;;;;;;;;;;5147374;27;20133;-45
2023/08/01 12:38:09;;;;;;;0.20;0.20;;;;;;;;;;5146422;27;20721;-45
2023/08/01 12:40:35;;;;;;;0.20;0.20;;;;;;;;;;5145000;27;20043;-50
2023/08/01 12:43:01;;;;;;;0.10;0.10;;;;;;;;;;5143911;27;20054;-48
2023/08/01 12:45:26;;;;;;;0.10;0.10;;;;;;;;;;5155014;27;20524;-45
2023/08/01 12:47:52;;;;;;;0.10;0.10;;;;;;;;;;5152569;27;20131;-49
2023/08/01 12:50:18;;;;;;;0.20;0.20;;;;;;;;;;5153404;27;20051;-50
2023/08/01 12:52:43;;;;;;;0.10;0.10;;;;;;;;;;5135453;27;20483;-49
2023/08/01 12:55:09;;;;;;;0.10;0.10;;;;;;;;;;5145312;27;20479;-50
2023/08/01 12:57:34;;;;;;;0.10;0.10;;;;;;;;;;5154951;27;20486;-49
2023/08/01 13:00:00;;;;;;;0.10;0.10;;;;;;;;;;5152461;27;20047;-47
2023/08/01 13:02:26;;;;;;;0.30;0.30;;;;;;;;;;5153315;27;20085;-48
2023/08/01 13:04:51;;;;;;;0.22;0.22;;;;;;;;;;5153389;27;20050;-48
2023/08/01 13:07:17;;;;;;;0.20;0.20;;;;;;;;;;5154978;27;20146;-49
2023/08/01 13:09:42;;;;;;;0.10;0.10;;;;;;;;;;5154637;27;20047;-47
2023/08/01 13:12:08;;;;;;;0.10;0.10;;;;;;;;;;5153956;27;20497;-48
2023/08/01 13:14:33;;;;;;;0.20;0.20;;;;;;;;;;5144381;27;20126;-47
2023/08/01 13:16:59;;;;;;;0.20;0.20;;;;;;;;;;5132704;27;20054;-48
2023/08/01 13:19:25;;;;;;;0.10;0.10;;;;;;;;;;5132036;28;20047;-48
2023/08/01 13:21:51;;;;;;;0.20;0.20;;;;;;;;;;5131976;27;20403;-47
2023/08/01 13:24:16;;;;;;;0.10;0.10;;;;;;;;;;5133592;28;20587;-50
2023/08/01 13:26:42;;;;;;;0.20;0.20;;;;;;;;;;5148154;27;20047;-51
2023/08/01 13:29:08;;;;;;;0.20;0.20;;;;;;;;;;5136692;27;20428;-51
2023/08/01 13:31:33;;;;;;;0.10;0.10;;;;;;;;;;5148731;27;20478;-49
2023/08/01 13:33:59;;;;;;;0.20;0.20;;;;;;;;;;5152914;27;20071;-48
2023/08/01 13:36:24;;;;;;;0.10;0.10;;;;;;;;;;5153697;27;20404;-41
2023/08/01 13:38:50;;;;;;;0.10;0.10;;;;;;;;;;5146683;27;20452;-40
2023/08/01 13:41:15;;;;;;;0.10;0.10;;;;;;;;;;5148799;27;20440;-41
2023/08/01 13:43:41;;;;;;;0.13;0.13;;;;;;;;;;5133583;28;20043;-43
2023/08/01 13:46:21;;;;;;;0.10;0.10;;;;;;;;;;5133005;28;20058;-41
2023/08/01 13:48:55;;;;;;;0.10;0.10;;;;;;;;;;5133079;27;20100;-40
2023/08/01 13:51:20;;;;;;;0.20;0.20;;;;;;;;;;5147032;27;20082;-42
2023/08/01 13:53:46;;;;;;;0.38;0.38;;;;;;;;;;5142728;27;20493;-40
2023/08/01 13:56:12;;;;;;;0.20;0.20;;;;;;;;;;5148411;27;20042;-42
2023/08/01 13:58:38;;;;;;;0.10;0.10;;;;;;;;;;5153493;27;20043;-43
2023/08/01 14:01:07;;;;;;;0.10;0.10;;;;;;;;;;5152391;27;20043;-42
2023/08/01 14:03:32;;;;;;;;;;;;;;;;;;5140798;27;20050;-42
2023/08/01 14:06:13;;;;;;;0.10;0.10;;;;;;;;;;5134409;27;20006;-42
2023/08/01 14:08:39;;;;;;;0.22;0.22;;;;;;;;;;5131939;28;20051;-42
2023/08/01 14:11:06;;;;;;;0.10;0.10;;;;;;;;;;5143035;27;20065;-42
2023/08/01 14:13:31;;;;;;;0.20;0.20;;;;;;;;;;5147895;27;20546;-41
2023/08/01 14:15:57;;;;;;;0.13;0.13;;;;;;;;;;5132098;28;20074;-43
2023/08/01 14:18:23;;;;;;;0.20;0.20;;;;;;;;;;5132388;28;20040;-42
2023/08/01 14:20:48;;;;;;;0.20;0.20;;;;;;;;;;5141473;27;20047;-41
2023/08/01 14:23:14;;;;;;;0.20;0.20;;;;;;;;;;5153218;27;20054;-42
2023/08/01 14:25:39;;;;;;;0.10;0.10;;;;;;;;;;5152700;27;20142;-41
2023/08/01 14:28:05;;;;;;;0.10;0.10;;;;;;;;;;5140661;27;20051;-41
2023/08/01 14:30:30;;;;;;;0.10;0.10;;;;;;;;;;5135663;27;20051;-41
2023/08/01 14:33:00;;;;;;;0.20;0.20;;;;;;;;;;5132106;28;20047;-41
2023/08/01 14:35:26;;;;;;;0.10;0.10;;;;;;;;;;5141910;27;20043;-41
2023/08/01 14:37:51;;;;;;;0.20;0.20;;;;;;;;;;5147571;27;20050;-42